This is the latest recevied weather packets stored in our database for station/object KC1OEK-13. If no packets are shown the sender has not sent any weather packets the latest 10 day(s).
| Time | Temp. | Humidity | Pressure | Rain* | Wind** | Luminosity | Snow |
|---|---|---|---|---|---|---|---|
| 1778188589 | 13.89° C | 42% | 1009.4 hPa | 0 mm | - | 71 W/m² | - |
| 1778188284 | 13.89° C | 44% | 1009.4 hPa | 0 mm | - | 80 W/m² | - |
| 1778187982 | 14.44° C | 42% | 1009.4 hPa | 0 mm | - | 83 W/m² | - |
| 1778187678 | 14.44° C | 41% | 1009.4 hPa | 0 mm | - | 75 W/m² | - |
| 1778187375 | 15° C | 40% | 1009.3 hPa | 0 mm | - | 83 W/m² | - |
| 1778187071 | 15° C | 43% | 1009.4 hPa | 0 mm | - | 97 W/m² | - |
| 1778186768 | 14.44° C | 41% | 1009.4 hPa | 0 mm | - | 116 W/m² | - |
| 1778186465 | 15° C | 41% | 1009.4 hPa | 0 mm | - | 183 W/m² | - |
| 1778186163 | 14.44° C | 39% | 1009.4 hPa | 0 mm | - | 104 W/m² | - |
| 1778185860 | 15° C | 41% | 1009.4 hPa | 0 mm | - | 94 W/m² | - |
| 1778185556 | 15° C | 39% | 1009.1 hPa | 0 mm | - | 99 W/m² | - |
| 1778185252 | 15° C | 40% | 1009.3 hPa | 0 mm | - | 520 W/m² | - |
| 1778184948 | 15° C | 39% | 1009.3 hPa | 0 mm | - | 93 W/m² | - |
| 1778184644 | 15.56° C | 40% | 1009.3 hPa | 0 mm | - | 90 W/m² | - |
| 1778184340 | 16.67° C | 36% | 1009.1 hPa | 0 mm | - | 552 W/m² | - |
| 1778184036 | 16.67° C | 37% | 1009.1 hPa | 0 mm | - | 582 W/m² | - |
| 1778183734 | 16.11° C | 39% | 1009.4 hPa | 0 mm | - | 622 W/m² | - |
| 1778183431 | 16.11° C | 36% | 1009.5 hPa | 0 mm | - | 618 W/m² | - |
| 1778183127 | 17.22° C | 36% | 1009.3 hPa | 0 mm | - | 603 W/m² | - |
| 1778182823 | 16.67° C | 39% | 1009.5 hPa | 0 mm | - | 614 W/m² | - |
| 1778182521 | 16.11° C | 39% | 1009.5 hPa | 0 mm | - | 615 W/m² | - |
| 1778182217 | 15° C | 40% | 1009.7 hPa | 0 mm | - | 665 W/m² | - |
| 1778181914 | 15° C | 40% | 1009.7 hPa | 0 mm | - | 119 W/m² | - |
| 1778181610 | 15° C | 39% | 1009.8 hPa | 0 mm | - | 597 W/m² | - |
| 1778181306 | 16.11° C | 38% | 1009.9 hPa | 0 mm | - | 344 W/m² | - |
* Rain latest hour (hover to see other rain measurements)
** Current wind speed in m/s (hover to see current wind gust speed)